Time;durP1;ratioP1;P1;durP2;ratioP2;P2;SDS_P1;SDS_P2;PMS_P1;PMS_P2;Temp;Humidity;BMP_temperature;BMP_pressure;BME280_temperature;BME280_humidity;BME280_pressure;Samples;Min_cycle;Max_cycle;Signal;HPM_P1;HPM_P2
2023/04/21 00:01:07;;;;;;;28.08;20.58;;;9.70;99.90;;;;;;4971480;28;20082;-65
2023/04/21 00:03:37;;;;;;;26.30;19.13;;;9.70;99.90;;;;;;4971574;28;20050;-64
2023/04/21 00:06:08;;;;;;;27.63;19.10;;;9.60;99.90;;;;;;4971209;28;20407;-65
2023/04/21 00:08:41;;;;;;;28.30;22.13;;;9.60;99.90;;;;;;4971487;28;20497;-65
2023/04/21 00:11:08;;;;;;;25.30;19.70;;;9.70;99.90;;;;;;4972921;28;20058;-65
2023/04/21 00:13:35;;;;;;;22.92;17.58;;;9.70;99.90;;;;;;4971658;28;20059;-65
2023/04/21 00:16:02;;;;;;;23.70;17.52;;;9.60;99.90;;;;;;4957842;28;20053;-65
2023/04/21 00:18:28;;;;;;;24.13;17.67;;;9.60;99.90;;;;;;4991430;28;20217;-65
2023/04/21 00:20:55;;;;;;;25.38;18.73;;;9.50;99.90;;;;;;4991982;28;20093;-65
2023/04/21 00:23:21;;;;;;;23.08;17.77;;;9.50;99.90;;;;;;4991710;28;20118;-65
2023/04/21 00:25:47;;;;;;;28.50;19.23;;;9.50;99.90;;;;;;4971136;28;20110;-65
2023/04/21 00:28:14;;;;;;;23.88;17.90;;;9.50;99.90;;;;;;4954526;28;20054;-64
2023/04/21 00:30:40;;;;;;;26.45;17.45;;;9.50;99.90;;;;;;4970854;28;20094;-65
2023/04/21 00:33:07;;;;;;;27.13;17.75;;;9.50;99.90;;;;;;4971019;28;20082;-65
2023/04/21 00:35:33;;;;;;;24.67;17.40;;;9.50;99.90;;;;;;4982898;28;20054;-64
2023/04/21 00:37:59;;;;;;;27.20;19.08;;;9.50;99.90;;;;;;4973695;28;20129;-64
2023/04/21 00:40:26;;;;;;;27.88;20.00;;;9.60;99.90;;;;;;4991426;28;20121;-64
2023/04/21 00:42:52;;;;;;;26.10;19.80;;;9.50;99.90;;;;;;4991517;28;20133;-65
2023/04/21 00:45:18;;;;;;;26.10;20.02;;;9.60;99.90;;;;;;4991605;28;20050;-64
2023/04/21 00:47:45;;;;;;;29.42;20.38;;;9.60;99.90;;;;;;4973843;28;20058;-66
2023/04/21 00:50:11;;;;;;;24.25;18.13;;;9.60;99.90;;;;;;4973756;28;20058;-65
2023/04/21 00:52:43;;;;;;;24.98;18.27;;;9.50;99.90;;;;;;4974314;28;20374;-64
2023/04/21 00:55:09;;;;;;;28.48;19.60;;;9.40;99.90;;;;;;4970735;28;20438;-65
2023/04/21 00:57:39;;;;;;;24.95;18.05;;;9.30;99.90;;;;;;4970570;28;20096;-64
2023/04/21 01:00:07;;;;;;;31.02;19.33;;;9.30;99.90;;;;;;4972358;28;20093;-64
2023/04/21 01:02:36;;;;;;;25.38;18.17;;;9.30;99.90;;;;;;4970783;28;20081;-65
2023/04/21 01:05:07;;;;;;;31.27;20.23;;;9.30;99.90;;;;;;4973722;28;20134;-65
2023/04/21 01:07:34;;;;;;;27.15;18.88;;;9.30;99.90;;;;;;4973839;28;20145;-66
2023/04/21 01:10:02;;;;;;;24.92;17.35;;;9.30;99.90;;;;;;4991691;28;20133;-65
2023/04/21 01:12:28;;;;;;;23.85;17.25;;;9.20;99.90;;;;;;4993990;28;20046;-65
2023/04/21 01:14:55;;;;;;;23.20;17.58;;;9.20;99.90;;;;;;4978037;28;20065;-64
2023/04/21 01:17:21;;;;;;;21.73;15.50;;;9.20;99.90;;;;;;4977491;28;20057;-65
2023/04/21 01:19:48;;;;;;;25.15;16.23;;;9.20;99.90;;;;;;4977662;28;20057;-64
2023/04/21 01:22:15;;;;;;;22.52;14.93;;;9.10;99.90;;;;;;4977782;28;20056;-65
2023/04/21 01:24:44;;;;;;;24.80;17.33;;;9.20;99.90;;;;;;4974282;28;20058;-65
2023/04/21 01:27:18;;;;;;;24.55;16.60;;;9.10;99.90;;;;;;4974348;28;20090;-64
2023/04/21 01:29:46;;;;;;;22.45;15.48;;;9.10;99.90;;;;;;4974527;28;20098;-64
2023/04/21 01:32:15;;;;;;;20.50;16.05;;;9.10;99.90;;;;;;4974502;28;20486;-65
2023/04/21 01:34:42;;;;;;;21.50;14.88;;;9.20;99.90;;;;;;4977194;28;20142;-64
2023/04/21 01:37:11;;;;;;;20.17;15.90;;;9.30;99.90;;;;;;4994592;28;20504;-66
2023/04/21 01:39:43;;;;;;;22.60;15.43;;;9.30;99.90;;;;;;4976920;28;20351;-64
2023/04/21 01:42:10;;;;;;;21.02;15.88;;;9.20;99.90;;;;;;4977237;28;20133;-64
2023/04/21 01:44:37;;;;;;;22.92;16.10;;;9.30;99.90;;;;;;4976264;28;20137;-64
2023/04/21 01:47:04;;;;;;;20.67;16.23;;;9.30;99.90;;;;;;4977200;28;20103;-64
2023/04/21 01:49:31;;;;;;;23.40;17.65;;;9.30;99.90;;;;;;4976482;28;20097;-64
2023/04/21 01:51:57;;;;;;;19.90;14.85;;;9.30;99.90;;;;;;4976713;28;20141;-64
2023/04/21 01:54:23;;;;;;;18.63;15.25;;;9.30;99.90;;;;;;4992767;28;20060;-64
2023/04/21 01:56:50;;;;;;;24.02;15.75;;;9.30;99.90;;;;;;4974183;28;20331;-64
2023/04/21 01:59:16;;;;;;;20.50;14.80;;;9.40;99.90;;;;;;4973417;28;20089;-65
2023/04/21 02:01:42;;;;;;;18.67;15.23;;;9.30;99.90;;;;;;4975292;28;20155;-64
2023/04/21 02:04:08;;;;;;;22.05;15.93;;;9.30;99.90;;;;;;4973314;28;20051;-65
2023/04/21 02:06:35;;;;;;;19.60;14.05;;;9.30;99.90;;;;;;4976878;28;20161;-64
2023/04/21 02:09:01;;;;;;;19.80;15.30;;;9.40;99.90;;;;;;4976681;28;20133;-64
2023/04/21 02:11:28;;;;;;;20.20;14.52;;;9.40;99.90;;;;;;4976761;28;20086;-64
2023/04/21 02:13:55;;;;;;;22.52;13.55;;;9.50;99.90;;;;;;4976544;28;20201;-64
2023/04/21 02:16:25;;;;;;;18.98;14.38;;;9.50;99.90;;;;;;4979155;28;20090;-65
2023/04/21 02:18:56;;;;;;;19.75;13.77;;;9.50;99.90;;;;;;4993779;28;20088;-64
2023/04/21 02:21:23;;;;;;;17.95;13.82;;;9.50;99.90;;;;;;5009231;28;20078;-65
2023/04/21 02:23:50;;;;;;;17.92;13.27;;;9.50;99.90;;;;;;4992466;28;20335;-64
2023/04/21 02:26:17;;;;;;;17.55;15.05;;;9.50;99.90;;;;;;4993654;28;20046;-64
2023/04/21 02:28:43;;;;;;;19.02;14.32;;;9.50;99.90;;;;;;4992043;28;20068;-64
2023/04/21 02:31:10;;;;;;;19.85;14.13;;;9.60;99.90;;;;;;4992571;28;20050;-64
2023/04/21 02:33:36;;;;;;;20.10;13.88;;;9.60;99.90;;;;;;4993657;28;20089;-64
2023/04/21 02:36:02;;;;;;;18.95;13.43;;;9.60;99.90;;;;;;4992281;28;20125;-64
2023/04/21 02:38:29;;;;;;;17.92;13.40;;;9.60;99.90;;;;;;4993314;28;20061;-65
2023/04/21 02:40:56;;;;;;;20.65;13.43;;;9.60;99.90;;;;;;4992498;28;20061;-64
2023/04/21 02:43:23;;;;;;;18.20;12.82;;;9.70;99.90;;;;;;4992303;28;20086;-64
2023/04/21 02:45:49;;;;;;;20.90;14.02;;;9.60;99.90;;;;;;4983802;28;20129;-64
2023/04/21 02:48:19;;;;;;;21.25;14.60;;;9.70;99.90;;;;;;4993423;28;20501;-64
2023/04/21 02:50:45;;;;;;;18.60;14.32;;;9.60;99.90;;;;;;4992628;28;20383;-64
2023/04/21 02:53:12;;;;;;;17.10;13.45;;;9.60;99.90;;;;;;4993509;28;20160;-65
2023/04/21 02:55:38;;;;;;;18.50;12.55;;;9.60;99.90;;;;;;4993322;28;20046;-65
2023/04/21 02:58:04;;;;;;;15.93;11.63;;;9.60;99.90;;;;;;4991698;28;20509;-64
2023/04/21 03:00:30;;;;;;;19.27;12.90;;;9.60;99.90;;;;;;4992240;28;20160;-64
2023/04/21 03:02:56;;;;;;;16.92;13.57;;;9.60;99.90;;;;;;4992421;28;20046;-64
2023/04/21 03:05:23;;;;;;;17.60;13.23;;;9.60;99.90;;;;;;4993086;28;20086;-65
2023/04/21 03:07:49;;;;;;;17.67;12.70;;;9.60;99.90;;;;;;4991780;28;20462;-64
2023/04/21 03:10:16;;;;;;;19.63;12.98;;;9.60;99.90;;;;;;4992207;28;20062;-65
2023/04/21 03:12:42;;;;;;;16.17;12.55;;;9.60;99.90;;;;;;4992024;28;20054;-65
2023/04/21 03:15:08;;;;;;;16.52;13.55;;;9.50;99.90;;;;;;4989341;28;20050;-66
2023/04/21 03:17:34;;;;;;;18.38;12.75;;;9.50;99.90;;;;;;4975381;28;20046;-65
2023/04/21 03:20:04;;;;;;;16.90;12.35;;;9.50;99.90;;;;;;4975620;28;20042;-65
2023/04/21 03:22:30;;;;;;;16.95;11.85;;;9.50;99.90;;;;;;4993293;28;20061;-64
2023/04/21 03:24:56;;;;;;;17.35;12.60;;;9.50;99.90;;;;;;4993369;28;20069;-66
2023/04/21 03:27:23;;;;;;;17.15;13.80;;;9.50;99.90;;;;;;4991295;28;20093;-65
2023/04/21 03:29:49;;;;;;;19.65;13.00;;;9.50;99.90;;;;;;4993005;28;20105;-64
2023/04/21 03:32:15;;;;;;;17.55;12.55;;;9.50;99.90;;;;;;4992179;28;20054;-64
2023/04/21 03:34:41;;;;;;;16.45;12.60;;;9.50;99.90;;;;;;4991937;28;20142;-65
2023/04/21 03:37:08;;;;;;;18.40;12.45;;;9.50;99.90;;;;;;4959593;28;20358;-65
2023/04/21 03:39:34;;;;;;;15.80;12.50;;;9.60;99.90;;;;;;4975720;28;20129;-64
2023/04/21 03:42:00;;;;;;;18.08;14.57;;;9.60;99.90;;;;;;4975677;28;20046;-64
2023/04/21 03:44:27;;;;;;;15.30;12.10;;;9.60;99.90;;;;;;4992826;28;20096;-65
2023/04/21 03:46:54;;;;;;;14.95;11.65;;;9.60;99.90;;;;;;4975739;28;20061;-64
2023/04/21 03:49:20;;;;;;;15.98;11.88;;;9.60;99.90;;;;;;4974909;28;20050;-65
2023/04/21 03:51:46;;;;;;;14.73;12.80;;;9.60;99.90;;;;;;4975437;28;20082;-65
2023/04/21 03:54:13;;;;;;;14.80;11.57;;;9.70;99.90;;;;;;4992157;28;20042;-65
2023/04/21 03:56:39;;;;;;;14.20;10.88;;;9.70;99.90;;;;;;4975525;28;20076;-65
2023/04/21 03:59:05;;;;;;;14.05;10.85;;;9.70;99.90;;;;;;4991657;28;20450;-64
2023/04/21 04:01:33;;;;;;;16.65;11.82;;;9.70;99.90;;;;;;4974950;28;20409;-64
2023/04/21 04:03:59;;;;;;;15.43;12.02;;;9.70;99.90;;;;;;4992705;28;20108;-66
2023/04/21 04:06:27;;;;;;;13.55;10.70;;;9.70;99.90;;;;;;4987843;28;20121;-65
2023/04/21 04:08:53;;;;;;;16.15;12.07;;;9.70;99.90;;;;;;4990688;28;20088;-65
2023/04/21 04:11:19;;;;;;;15.40;11.18;;;9.70;99.90;;;;;;4992320;28;20133;-64
2023/04/21 04:13:46;;;;;;;15.65;12.23;;;9.70;99.90;;;;;;4975028;28;20092;-65
2023/04/21 04:16:12;;;;;;;18.50;11.00;;;9.70;99.90;;;;;;4992104;28;20055;-65
2023/04/21 04:18:38;;;;;;;17.48;13.25;;;9.70;99.90;;;;;;4974649;28;20147;-64
2023/04/21 04:21:06;;;;;;;15.45;11.02;;;9.70;99.90;;;;;;4992268;28;20081;-65
2023/04/21 04:23:33;;;;;;;15.55;10.73;;;9.60;99.90;;;;;;4974580;28;20082;-65
2023/04/21 04:26:00;;;;;;;13.65;10.52;;;9.70;99.90;;;;;;4974759;28;20454;-64
2023/04/21 04:28:27;;;;;;;14.77;10.13;;;9.60;99.90;;;;;;4974577;28;20082;-66
2023/04/21 04:30:54;;;;;;;14.23;11.50;;;9.60;99.90;;;;;;4974761;28;20090;-65
2023/04/21 04:33:20;;;;;;;15.00;10.88;;;9.60;99.90;;;;;;4992154;28;20091;-65
2023/04/21 04:35:46;;;;;;;13.50;10.90;;;9.60;99.90;;;;;;4955522;28;20069;-65
2023/04/21 04:38:16;;;;;;;13.82;10.60;;;9.60;99.90;;;;;;4955072;28;20047;-65
2023/04/21 04:40:42;;;;;;;15.75;10.80;;;9.70;99.90;;;;;;4971598;28;20169;-65
2023/04/21 04:43:11;;;;;;;15.27;10.65;;;9.70;99.90;;;;;;4971373;28;20436;-65
2023/04/21 04:45:38;;;;;;;13.40;10.18;;;9.70;99.90;;;;;;4983708;28;20065;-66
2023/04/21 04:48:04;;;;;;;14.68;11.43;;;9.70;99.90;;;;;;4978399;28;20051;-65
2023/04/21 04:50:31;;;;;;;17.13;10.55;;;9.70;99.90;;;;;;4996227;28;20050;-65
2023/04/21 04:52:57;;;;;;;14.98;10.45;;;9.70;99.90;;;;;;4995695;28;20089;-65
2023/04/21 04:55:24;;;;;;;16.27;11.48;;;9.80;99.90;;;;;;4975116;28;20086;-64
2023/04/21 04:57:50;;;;;;;14.52;11.30;;;9.80;99.90;;;;;;4975992;28;20082;-66
2023/04/21 05:00:17;;;;;;;14.27;11.15;;;9.80;99.90;;;;;;4959007;28;20082;-65
2023/04/21 05:02:43;;;;;;;15.63;11.45;;;9.80;99.90;;;;;;4975785;28;20057;-65
2023/04/21 05:05:09;;;;;;;13.90;10.73;;;9.90;99.90;;;;;;4976398;28;20093;-65
2023/04/21 05:07:36;;;;;;;14.38;10.43;;;9.90;99.90;;;;;;4976326;28;20087;-66
2023/04/21 05:10:03;;;;;;;14.48;11.18;;;9.90;99.90;;;;;;4959341;28;20061;-65
2023/04/21 05:12:32;;;;;;;14.43;9.85;;;10.00;99.90;;;;;;4958531;28;20328;-65
2023/04/21 05:14:59;;;;;;;14.07;10.10;;;10.00;99.90;;;;;;4976284;28;20426;-65
2023/04/21 05:17:26;;;;;;;13.93;10.50;;;10.00;99.90;;;;;;4980686;28;20050;-65
2023/04/21 05:19:52;;;;;;;15.50;11.43;;;10.00;99.90;;;;;;4975099;28;20082;-65
2023/04/21 05:22:18;;;;;;;16.48;11.77;;;10.10;99.90;;;;;;4974140;28;20129;-64
2023/04/21 05:24:44;;;;;;;12.73;10.32;;;10.30;99.90;;;;;;4973602;28;20141;-65
2023/04/21 05:27:11;;;;;;;15.38;10.38;;;10.60;99.90;;;;;;4973487;28;20086;-64
2023/04/21 05:29:37;;;;;;;16.27;10.35;;;10.60;99.90;;;;;;4973918;28;20082;-65
2023/04/21 05:32:04;;;;;;;14.68;10.10;;;10.50;99.90;;;;;;4975012;28;20082;-65
2023/04/21 05:34:30;;;;;;;12.98;9.63;;;10.50;99.90;;;;;;4974559;28;20569;-65
2023/04/21 05:36:56;;;;;;;14.55;11.32;;;10.50;99.90;;;;;;4974521;28;20101;-64
2023/04/21 05:39:23;;;;;;;14.55;9.60;;;10.40;99.90;;;;;;4974025;28;20415;-64
2023/04/21 05:41:49;;;;;;;14.07;10.82;;;10.50;99.90;;;;;;4974288;28;20090;-65
2023/04/21 05:44:16;;;;;;;14.05;10.57;;;10.60;99.90;;;;;;4974045;28;20133;-66
2023/04/21 05:46:43;;;;;;;12.95;9.95;;;10.80;99.90;;;;;;4974197;28;20061;-65
2023/04/21 05:49:09;;;;;;;13.70;9.68;;;10.90;99.90;;;;;;4974807;28;20089;-64
2023/04/21 05:51:35;;;;;;;13.00;9.73;;;11.10;99.90;;;;;;4975311;28;20050;-64
2023/04/21 05:54:01;;;;;;;14.40;10.20;;;11.00;99.90;;;;;;4973951;28;20515;-64
2023/04/21 05:56:28;;;;;;;14.00;10.05;;;10.90;99.90;;;;;;4973794;28;20055;-64
2023/04/21 05:58:54;;;;;;;12.25;10.05;;;10.90;99.90;;;;;;4973630;28;20367;-65
2023/04/21 06:01:20;;;;;;;15.20;10.38;;;10.80;99.90;;;;;;4974167;28;20054;-64
2023/04/21 06:03:49;;;;;;;14.68;10.50;;;10.80;99.90;;;;;;4975238;28;20505;-64
2023/04/21 06:06:16;;;;;;;14.32;12.30;;;10.90;99.90;;;;;;4984928;28;20059;-64
2023/04/21 06:08:43;;;;;;;16.58;9.90;;;11.20;99.90;;;;;;4990023;28;20343;-64
2023/04/21 06:11:09;;;;;;;14.80;10.70;;;11.40;99.90;;;;;;4990459;28;20086;-65
2023/04/21 06:13:35;;;;;;;16.60;10.05;;;11.50;99.90;;;;;;4990025;28;20051;-64
2023/04/21 06:16:01;;;;;;;15.75;10.50;;;11.40;99.90;;;;;;4989850;28;20141;-63
2023/04/21 06:18:28;;;;;;;14.95;10.95;;;11.30;99.90;;;;;;4975064;28;20069;-64
2023/04/21 06:20:55;;;;;;;13.88;10.15;;;11.10;99.90;;;;;;4974878;28;20047;-64
2023/04/21 06:23:21;;;;;;;11.93;10.52;;;10.90;99.90;;;;;;4973600;28;20069;-65
2023/04/21 06:26:03;;;;;;;14.45;10.57;;;10.90;99.90;;;;;;4974700;28;20051;-64
2023/04/21 06:28:31;;;;;;;15.93;9.98;;;10.80;99.90;;;;;;4973015;28;20054;-64
2023/04/21 06:30:58;;;;;;;14.23;10.60;;;10.90;99.90;;;;;;4973346;28;20050;-64
2023/04/21 06:33:25;;;;;;;14.40;10.77;;;10.80;99.90;;;;;;4973013;28;20097;-64
2023/04/21 06:35:52;;;;;;;13.57;11.27;;;10.90;99.90;;;;;;4973883;28;20432;-65
2023/04/21 06:38:19;;;;;;;14.07;10.85;;;10.90;99.90;;;;;;4974475;28;20086;-65
2023/04/21 06:40:45;;;;;;;14.27;10.20;;;10.90;99.90;;;;;;4989481;28;20474;-64
2023/04/21 06:43:12;;;;;;;12.50;10.13;;;11.00;99.90;;;;;;4972645;28;20134;-65
2023/04/21 06:45:38;;;;;;;13.35;10.68;;;11.00;99.90;;;;;;4973733;28;20090;-64
2023/04/21 06:48:04;;;;;;;13.85;10.93;;;11.00;99.90;;;;;;4973704;28;20197;-65
2023/04/21 06:50:31;;;;;;;16.83;10.15;;;11.00;99.90;;;;;;4972558;28;20138;-64
2023/04/21 06:52:57;;;;;;;12.13;9.80;;;11.00;99.90;;;;;;4973863;28;20137;-65
2023/04/21 06:55:23;;;;;;;12.63;10.23;;;11.00;99.90;;;;;;4969117;28;20047;-65
2023/04/21 06:57:49;;;;;;;12.82;10.02;;;11.00;99.90;;;;;;4968911;28;20054;-66
2023/04/21 07:00:16;;;;;;;14.63;10.85;;;11.00;99.90;;;;;;4955278;29;20082;-65
2023/04/21 07:02:42;;;;;;;15.02;9.75;;;11.10;99.90;;;;;;4969213;28;20079;-65
2023/04/21 07:05:08;;;;;;;15.45;11.55;;;11.20;99.90;;;;;;4958554;28;20125;-65
2023/04/21 07:07:35;;;;;;;16.48;10.82;;;11.20;99.90;;;;;;4981652;28;20074;-65
2023/04/21 07:10:01;;;;;;;14.65;11.30;;;11.20;99.90;;;;;;4975421;28;20042;-66
2023/04/21 07:12:27;;;;;;;15.23;11.48;;;11.30;99.90;;;;;;4973607;28;20142;-65
2023/04/21 07:14:54;;;;;;;16.73;10.57;;;11.30;99.90;;;;;;4973816;28;20402;-64
2023/04/21 07:17:21;;;;;;;13.95;10.40;;;11.40;99.90;;;;;;5001242;28;20112;-65
2023/04/21 07:19:47;;;;;;;15.05;11.30;;;11.50;99.90;;;;;;4994412;28;20493;-65
2023/04/21 07:22:13;;;;;;;13.07;10.48;;;11.60;99.90;;;;;;5012176;28;20046;-65
2023/04/21 07:24:39;;;;;;;12.80;9.98;;;11.70;99.90;;;;;;4994226;28;20152;-65
2023/04/21 07:27:05;;;;;;;19.08;10.65;;;11.90;99.90;;;;;;4994316;28;20077;-65
2023/04/21 07:29:32;;;;;;;13.30;10.40;;;11.90;99.90;;;;;;5011543;28;20129;-65
2023/04/21 07:31:58;;;;;;;12.77;10.57;;;12.00;99.90;;;;;;4994525;28;20104;-66
2023/04/21 07:34:27;;;;;;;13.25;10.52;;;12.20;99.90;;;;;;4994057;28;20060;-66
2023/04/21 07:36:55;;;;;;;12.55;10.02;;;12.30;99.90;;;;;;4992537;28;20196;-65
2023/04/21 07:39:21;;;;;;;13.45;10.40;;;12.40;99.90;;;;;;4992022;28;20069;-65
2023/04/21 07:41:47;;;;;;;13.20;9.90;;;12.40;99.90;;;;;;4992218;28;20057;-65
2023/04/21 07:44:14;;;;;;;15.45;9.90;;;12.60;99.90;;;;;;4991999;28;20050;-66
2023/04/21 07:46:40;;;;;;;11.60;9.98;;;12.80;99.90;;;;;;5007848;28;20559;-66
2023/04/21 07:49:07;;;;;;;13.32;11.23;;;12.80;99.90;;;;;;4993497;28;20145;-65
2023/04/21 07:52:07;;;;;;;15.82;11.95;;;12.90;99.90;;;;;;5011336;28;20046;-66
2023/04/21 07:54:33;;;;;;;14.55;12.15;;;12.80;99.90;;;;;;5011365;28;20330;-64
2023/04/21 07:57:01;;;;;;;15.40;11.60;;;12.70;99.90;;;;;;5008980;28;20358;-65
2023/04/21 07:59:27;;;;;;;15.05;10.50;;;12.70;99.90;;;;;;5011282;28;20445;-66
2023/04/21 08:01:53;;;;;;;15.18;11.65;;;12.60;99.90;;;;;;5011133;28;20221;-66
2023/04/21 08:04:20;;;;;;;12.95;11.02;;;12.60;99.90;;;;;;5011361;28;20125;-65
2023/04/21 08:06:46;;;;;;;14.13;10.52;;;12.60;99.90;;;;;;5010082;28;20078;-66
2023/04/21 08:09:13;;;;;;;17.65;11.30;;;12.60;99.90;;;;;;4993490;28;20072;-66
2023/04/21 08:11:39;;;;;;;13.10;11.45;;;12.60;99.90;;;;;;5011189;28;20132;-66
2023/04/21 08:14:05;;;;;;;12.30;10.05;;;12.70;99.90;;;;;;5011113;28;20073;-65
2023/04/21 08:16:32;;;;;;;13.82;10.20;;;12.70;99.90;;;;;;4995003;28;20124;-66
2023/04/21 08:18:58;;;;;;;14.23;10.40;;;12.80;99.90;;;;;;4991276;28;20481;-65
2023/04/21 08:21:24;;;;;;;20.13;10.68;;;12.90;99.90;;;;;;4990780;28;20436;-66
2023/04/21 08:23:51;;;;;;;15.55;10.70;;;12.90;99.90;;;;;;4991267;28;20077;-66
2023/04/21 08:26:20;;;;;;;15.30;11.27;;;12.90;99.90;;;;;;4978540;28;20138;-65
2023/04/21 08:28:48;;;;;;;16.55;10.52;;;12.90;99.90;;;;;;4954462;28;20094;-65
2023/04/21 08:31:16;;;;;;;12.13;10.55;;;13.00;99.90;;;;;;4971712;28;20490;-66
2023/04/21 08:33:42;;;;;;;17.45;10.88;;;13.20;99.90;;;;;;4971936;28;20097;-65
2023/04/21 08:36:09;;;;;;;15.57;11.65;;;13.40;99.90;;;;;;4983094;28;20208;-65
2023/04/21 08:38:36;;;;;;;12.75;10.93;;;13.50;99.90;;;;;;4990673;28;20438;-66
2023/04/21 08:41:09;;;;;;;16.83;12.20;;;13.80;99.90;;;;;;4974184;28;20066;-66
2023/04/21 08:43:36;;;;;;;16.65;10.75;;;14.00;99.90;;;;;;4991117;28;20093;-66
2023/04/21 08:46:06;;;;;;;14.93;10.93;;;14.10;99.90;;;;;;4979984;28;20058;-65
2023/04/21 08:48:36;;;;;;;15.10;11.38;;;14.50;99.90;;;;;;4971273;28;20089;-66
2023/04/21 08:51:03;;;;;;;14.18;11.32;;;14.60;99.90;;;;;;4971557;28;20050;-66
2023/04/21 08:53:29;;;;;;;15.48;11.50;;;14.70;99.90;;;;;;4971534;28;20145;-66
2023/04/21 08:55:55;;;;;;;18.63;12.20;;;14.70;99.90;;;;;;4981342;28;20094;-65
2023/04/21 08:58:22;;;;;;;17.98;12.13;;;14.70;99.90;;;;;;4990647;28;20336;-66
2023/04/21 09:00:49;;;;;;;13.13;11.23;;;14.80;99.90;;;;;;4990793;28;20462;-65
2023/04/21 09:03:22;;;;;;;18.60;12.82;;;14.70;99.90;;;;;;4973359;28;20074;-65
2023/04/21 09:06:06;;;;;;;17.48;11.88;;;14.60;99.90;;;;;;4981845;28;20043;-65
2023/04/21 09:08:33;;;;;;;;;;;14.70;99.90;;;;;;4971536;28;20061;-67
2023/04/21 09:11:00;;;;;;;14.88;11.93;;;14.70;99.90;;;;;;4971543;28;19949;-65
2023/04/21 09:13:32;;;;;;;13.57;11.07;;;14.80;99.90;;;;;;4971215;28;20078;-65
2023/04/21 09:15:58;;;;;;;;;;;15.10;99.90;;;;;;4973400;28;20059;-65
2023/04/21 09:18:27;;;;;;;16.63;11.55;;;15.20;99.90;;;;;;4990233;28;20365;-66
2023/04/21 09:21:12;;;;;;;16.08;10.63;;;15.30;99.90;;;;;;4990795;28;20121;-65
2023/04/21 09:23:43;;;;;;;14.30;10.45;;;15.40;99.90;;;;;;4991043;28;20047;-65
2023/04/21 09:26:10;;;;;;;14.82;11.55;;;15.30;99.90;;;;;;4979113;28;20168;-66
2023/04/21 09:28:40;;;;;;;17.58;12.13;;;15.20;99.90;;;;;;4971362;28;20050;-65
2023/04/21 09:31:14;;;;;;;15.45;12.35;;;15.10;99.90;;;;;;4971667;28;20047;-66
2023/04/21 09:33:47;;;;;;;15.52;11.70;;;15.00;99.90;;;;;;4972698;28;20065;-65
2023/04/21 09:36:24;;;;;;;16.88;12.05;;;15.00;99.90;;;;;;4975086;28;20086;-66
2023/04/21 09:38:58;;;;;;;14.43;12.18;;;15.00;99.90;;;;;;4974824;28;20038;-67
2023/04/21 09:41:24;;;;;;;18.23;13.93;;;15.00;99.90;;;;;;4974967;28;20169;-66
2023/04/21 09:43:50;;;;;;;15.82;11.68;;;15.00;99.90;;;;;;4974692;28;20047;-66
2023/04/21 09:46:20;;;;;;;17.42;11.95;;;15.30;99.90;;;;;;4976512;28;20065;-65
2023/04/21 09:48:47;;;;;;;17.35;12.63;;;15.50;99.90;;;;;;4976526;28;20050;-65
2023/04/21 09:51:16;;;;;;;18.05;12.65;;;15.50;99.90;;;;;;4994022;28;20290;-66
2023/04/21 09:53:44;;;;;;;14.13;12.35;;;15.50;99.90;;;;;;4976500;28;20051;-65
2023/04/21 09:56:12;;;;;;;16.05;13.07;;;15.60;99.90;;;;;;4982182;28;20169;-65
2023/04/21 09:58:47;;;;;;;16.23;12.38;;;15.70;99.90;;;;;;4974063;28;20312;-65
2023/04/21 10:01:14;;;;;;;18.42;13.27;;;15.60;99.90;;;;;;4974357;28;20046;-66
2023/04/21 10:03:51;;;;;;;17.00;13.52;;;15.60;99.90;;;;;;4973098;28;20445;-65
2023/04/21 10:06:18;;;;;;;18.55;12.32;;;15.70;99.90;;;;;;4976266;28;20161;-65
2023/04/21 10:08:45;;;;;;;16.27;12.93;;;15.80;99.90;;;;;;4993290;28;20157;-66
2023/04/21 10:11:12;;;;;;;18.17;13.23;;;15.90;99.90;;;;;;4993723;28;20066;-65
2023/04/21 10:13:40;;;;;;;15.85;12.90;;;15.80;99.90;;;;;;4993782;28;20050;-65
2023/04/21 10:16:10;;;;;;;17.35;13.00;;;15.90;99.90;;;;;;4992424;28;20054;-66
2023/04/21 10:18:41;;;;;;;16.10;12.95;;;15.90;99.90;;;;;;4993165;28;20085;-66
2023/04/21 10:21:09;;;;;;;15.60;12.95;;;16.00;99.90;;;;;;4993417;28;20082;-65
2023/04/21 10:23:38;;;;;;;16.13;12.40;;;16.10;99.90;;;;;;4993128;28;20386;-65
2023/04/21 10:26:19;;;;;;;16.20;13.20;;;16.00;99.90;;;;;;4982860;28;20053;-66
2023/04/21 10:28:55;;;;;;;15.68;13.75;;;16.00;99.90;;;;;;4974255;28;20101;-65
2023/04/21 10:31:51;;;;;;;18.92;14.70;;;15.90;99.90;;;;;;4973758;28;20082;-65
2023/04/21 10:34:20;;;;;;;18.38;13.63;;;16.10;99.90;;;;;;4965552;28;20424;-67
2023/04/21 10:36:55;;;;;;;16.67;13.68;;;16.00;99.90;;;;;;4975354;28;20081;-64
2023/04/21 10:39:36;;;;;;;16.63;14.35;;;16.00;99.90;;;;;;4993380;28;20050;-65
2023/04/21 10:42:12;;;;;;;16.05;12.70;;;16.00;99.90;;;;;;4993045;28;20042;-65
2023/04/21 10:44:56;;;;;;;15.38;12.68;;;15.80;99.90;;;;;;4992751;28;20142;-65
2023/04/21 10:47:35;;;;;;;15.35;12.45;;;15.80;99.90;;;;;;4953531;29;20507;-65
2023/04/21 10:50:27;;;;;;;17.90;13.75;;;15.70;99.90;;;;;;4954016;29;20456;-65
2023/04/21 10:52:56;;;;;;;18.70;13.63;;;15.60;99.90;;;;;;4954336;29;20082;-64
2023/04/21 10:55:25;;;;;;;19.08;13.18;;;15.60;99.90;;;;;;4978402;28;20406;-65
2023/04/21 10:57:52;;;;;;;16.23;13.60;;;15.60;99.90;;;;;;4992467;28;20057;-65
2023/04/21 11:00:21;;;;;;;22.38;15.32;;;15.50;99.90;;;;;;4975402;28;20426;-65
2023/04/21 11:02:56;;;;;;;21.08;13.15;;;15.50;99.90;;;;;;4992955;28;20133;-65
2023/04/21 11:05:37;;;;;;;16.75;13.18;;;15.60;99.90;;;;;;4988176;28;20050;-65
2023/04/21 11:08:08;;;;;;;17.45;13.30;;;15.60;99.90;;;;;;4972670;28;20441;-65
2023/04/21 11:10:51;;;;;;;16.95;13.25;;;15.70;99.90;;;;;;4973180;28;20086;-66
2023/04/21 11:13:26;;;;;;;18.27;13.50;;;15.70;99.90;;;;;;4988447;28;20419;-65
2023/04/21 11:15:56;;;;;;;17.75;14.27;;;15.80;99.90;;;;;;4980713;28;20042;-66
2023/04/21 11:18:36;;;;;;;15.27;13.68;;;15.80;99.90;;;;;;4974528;28;20510;-66
2023/04/21 11:21:20;;;;;;;19.35;13.82;;;15.90;99.90;;;;;;4992106;28;20461;-65
2023/04/21 11:23:51;;;;;;;18.70;13.27;;;16.00;99.90;;;;;;4992427;28;20074;-65
2023/04/21 11:26:28;;;;;;;18.08;13.32;;;16.10;99.90;;;;;;4991577;28;20054;-65
2023/04/21 11:28:55;;;;;;;16.90;13.48;;;16.10;99.90;;;;;;4988090;28;20042;-65
2023/04/21 11:31:27;;;;;;;16.20;13.25;;;16.10;99.90;;;;;;4972945;28;20061;-65
2023/04/21 11:33:54;;;;;;;17.08;13.23;;;16.20;99.90;;;;;;4971243;28;20142;-66
2023/04/21 11:36:21;;;;;;;19.08;13.90;;;16.20;99.90;;;;;;4972588;28;20145;-64
2023/04/21 11:38:47;;;;;;;19.05;14.05;;;16.20;99.90;;;;;;4972379;28;20130;-65
2023/04/21 11:41:23;;;;;;;18.55;14.70;;;16.20;99.90;;;;;;4972422;28;20153;-64
2023/04/21 11:43:51;;;;;;;22.33;14.50;;;16.10;99.90;;;;;;4972642;28;20097;-64
2023/04/21 11:46:21;;;;;;;20.10;14.50;;;16.20;99.90;;;;;;4983319;28;20081;-65
2023/04/21 11:49:01;;;;;;;17.15;14.63;;;16.30;99.90;;;;;;4974341;28;20046;-65
2023/04/21 11:51:42;;;;;;;19.02;14.30;;;16.40;99.90;;;;;;4991452;28;20355;-65
2023/04/21 11:54:11;;;;;;;15.10;13.20;;;16.60;99.90;;;;;;4991280;28;20388;-65
2023/04/21 11:56:39;;;;;;;18.17;14.40;;;16.80;99.90;;;;;;4976490;28;20154;-65
2023/04/21 11:59:11;;;;;;;18.55;13.98;;;16.80;99.90;;;;;;4972093;28;20051;-65
2023/04/21 12:01:45;;;;;;;18.35;13.75;;;17.00;99.90;;;;;;4972026;28;20454;-65
2023/04/21 12:04:20;;;;;;;17.70;14.75;;;17.10;99.90;;;;;;4972107;28;20072;-65
2023/04/21 12:06:58;;;;;;;20.55;14.45;;;17.10;99.90;;;;;;4986935;28;20153;-65
2023/04/21 12:09:24;;;;;;;16.40;14.70;;;17.20;99.90;;;;;;4973934;28;20050;-64
2023/04/21 12:11:53;;;;;;;17.67;15.65;;;17.10;99.90;;;;;;4991139;28;20339;-65
2023/04/21 12:14:21;;;;;;;17.55;14.60;;;17.20;99.90;;;;;;4991651;28;20179;-65
2023/04/21 12:16:50;;;;;;;18.33;14.27;;;17.30;99.90;;;;;;4973393;28;20051;-65
2023/04/21 12:19:40;;;;;;;16.95;15.10;;;17.50;99.90;;;;;;4974038;28;20521;-66
2023/04/21 12:22:11;;;;;;;16.77;14.13;;;17.50;99.90;;;;;;4974406;28;20069;-65
2023/04/21 12:25:09;;;;;;;20.65;14.75;;;17.50;99.90;;;;;;4991508;28;20065;-66
2023/04/21 12:27:36;;;;;;;17.45;15.60;;;17.60;99.90;;;;;;4951920;29;20490;-66
2023/04/21 12:30:02;;;;;;;16.23;14.43;;;17.60;99.90;;;;;;4952839;29;20078;-65
2023/04/21 12:32:29;;;;;;;18.83;15.27;;;17.80;99.90;;;;;;4944650;28;20069;-65
2023/04/21 12:34:55;;;;;;;17.80;15.90;;;17.80;99.90;;;;;;4971285;28;20109;-66
2023/04/21 12:37:22;;;;;;;16.60;14.73;;;17.80;99.90;;;;;;4955884;28;20050;-65
2023/04/21 12:39:48;;;;;;;18.80;15.07;;;17.90;99.90;;;;;;4971586;28;20057;-65